createdAt,value
2019-03-30T00:00:06.644Z,2.50
2019-03-30T00:02:53.814Z,2.90
2019-03-30T00:05:47.756Z,2.50
2019-03-30T00:08:41.792Z,2.40
2019-03-30T00:11:35.757Z,2.30
2019-03-30T00:14:23.032Z,2.37
2019-03-30T00:17:17.432Z,2.50
2019-03-30T00:20:05.742Z,2.20
2019-03-30T00:23:00.564Z,2.33
2019-03-30T00:25:54.178Z,2.40
2019-03-30T00:28:48.096Z,2.50
2019-03-30T00:31:35.398Z,2.70
2019-03-30T00:34:29.826Z,2.30
2019-03-30T00:37:17.278Z,2.57
2019-03-30T00:40:12.856Z,2.73
2019-03-30T00:43:00.003Z,2.40
2019-03-30T00:45:53.700Z,3.17
2019-03-30T00:48:42.918Z,2.63
2019-03-30T00:51:36.989Z,2.70
2019-03-30T00:54:24.278Z,2.50
2019-03-30T00:57:20.197Z,2.30
2019-03-30T01:00:07.574Z,2.70
2019-03-30T01:03:02.491Z,2.40
2019-03-30T01:05:49.380Z,2.70
2019-03-30T01:08:42.880Z,2.53
2019-03-30T01:11:40.487Z,2.40
2019-03-30T01:14:34.875Z,2.43
2019-03-30T01:17:22.263Z,2.60
2019-03-30T01:20:16.847Z,2.60
2019-03-30T01:23:04.179Z,2.70
2019-03-30T01:26:08.282Z,2.80
2019-03-30T01:29:02.633Z,2.70
2019-03-30T01:31:56.992Z,2.43
2019-03-30T01:34:46.674Z,2.50
2019-03-30T01:37:40.753Z,2.50
2019-03-30T01:40:28.067Z,2.60
2019-03-30T01:43:21.837Z,2.97
2019-03-30T01:46:09.361Z,2.77
2019-03-30T01:49:05.243Z,2.57
2019-03-30T01:51:52.988Z,2.60
2019-03-30T01:54:48.407Z,2.73
2019-03-30T01:57:37.303Z,2.70
2019-03-30T02:00:32.817Z,2.87
2019-03-30T02:03:20.332Z,2.80
2019-03-30T02:06:14.269Z,2.70
2019-03-30T02:09:01.087Z,2.80
2019-03-30T02:11:55.231Z,2.63
2019-03-30T02:14:49.765Z,2.60
2019-03-30T02:17:43.661Z,2.50
2019-03-30T02:20:44.041Z,2.57
2019-03-30T02:23:38.175Z,3.07
2019-03-30T02:26:33.129Z,2.47
2019-03-30T02:29:34.697Z,2.80
2019-03-30T02:32:22.142Z,2.70
2019-03-30T02:35:16.282Z,2.80
2019-03-30T02:38:03.406Z,2.67
2019-03-30T02:40:57.287Z,2.97
2019-03-30T02:43:44.725Z,2.77
2019-03-30T02:46:45.480Z,2.87
2019-03-30T02:49:32.621Z,2.80
2019-03-30T02:52:27.181Z,3.10
2019-03-30T02:55:16.669Z,2.40
2019-03-30T02:58:10.989Z,2.97
2019-03-30T03:00:58.470Z,2.93
2019-03-30T03:03:52.962Z,2.90
2019-03-30T03:06:40.303Z,2.63
2019-03-30T03:09:35.464Z,3.17
2019-03-30T03:12:22.408Z,2.80
2019-03-30T03:15:16.731Z,2.90
2019-03-30T03:18:10.733Z,2.80
2019-03-30T03:21:08.164Z,2.70
2019-03-30T03:23:54.038Z,2.80
2019-03-30T03:26:54.818Z,2.90
2019-03-30T03:29:48.511Z,2.87
2019-03-30T03:32:44.996Z,3.03
2019-03-30T03:35:32.216Z,2.80
2019-03-30T03:38:25.927Z,2.90
2019-03-30T03:41:13.219Z,2.90
2019-03-30T03:44:07.854Z,2.90
2019-03-30T03:46:57.836Z,2.70
2019-03-30T03:49:52.206Z,2.73
2019-03-30T03:52:39.509Z,2.60
2019-03-30T03:55:33.076Z,2.80
2019-03-30T03:58:20.072Z,2.97
2019-03-30T04:01:14.444Z,2.90
2019-03-30T04:04:03.391Z,3.00
2019-03-30T04:06:57.775Z,3.10
2019-03-30T04:09:46.127Z,2.90
2019-03-30T04:12:40.386Z,2.80
2019-03-30T04:15:27.496Z,3.10
2019-03-30T04:18:22.178Z,3.50
2019-03-30T04:21:16.328Z,3.10
2019-03-30T04:24:10.611Z,2.50
2019-03-30T04:27:04.545Z,3.20
2019-03-30T04:30:05.550Z,2.50
2019-03-30T04:32:52.831Z,2.90
2019-03-30T04:35:47.541Z,3.03
2019-03-30T04:38:34.800Z,2.87
2019-03-30T04:41:28.180Z,2.90
2019-03-30T04:44:15.579Z,3.03
2019-03-30T04:47:09.740Z,2.80
2019-03-30T04:49:57.061Z,3.10
2019-03-30T04:52:50.830Z,3.10
2019-03-30T04:55:38.015Z,3.27
2019-03-30T05:01:22.740Z,3.03
2019-03-30T05:04:17.151Z,2.70
2019-03-30T05:07:04.588Z,3.10
2019-03-30T05:09:58.460Z,3.00
2019-03-30T05:12:45.804Z,2.93
2019-03-30T05:15:40.178Z,3.10
2019-03-30T05:18:27.444Z,3.07
2019-03-30T05:21:22.812Z,3.43
2019-03-30T05:24:16.487Z,2.90
2019-03-30T05:27:10.580Z,2.97
2019-03-30T05:30:04.864Z,3.07
2019-03-30T05:33:05.575Z,3.30
2019-03-30T05:35:47.930Z,2.80
2019-03-30T05:41:31.559Z,2.60
2019-03-30T05:44:25.903Z,2.63
2019-03-30T05:47:13.101Z,2.80
2019-03-30T05:50:07.251Z,2.70
2019-03-30T05:52:54.621Z,2.70
2019-03-30T05:55:48.980Z,3.07
2019-03-30T05:58:36.084Z,2.80
2019-03-30T06:01:32.401Z,3.07
2019-03-30T06:04:19.661Z,3.07
2019-03-30T06:07:14.591Z,3.07
2019-03-30T06:10:02.150Z,2.57
2019-03-30T06:12:59.877Z,2.73
2019-03-30T06:15:50.148Z,2.80
2019-03-30T06:18:43.936Z,3.00
2019-03-30T06:21:31.364Z,2.77
2019-03-30T06:24:25.726Z,2.73
2019-03-30T06:27:19.310Z,2.93
2019-03-30T06:30:31.260Z,2.83
2019-03-30T06:33:24.568Z,2.83
2019-03-30T06:36:18.877Z,2.80
2019-03-30T06:39:06.365Z,2.67
2019-03-30T06:42:00.826Z,3.13
2019-03-30T06:44:48.179Z,2.80
2019-03-30T06:47:42.581Z,2.93
2019-03-30T06:50:29.720Z,2.80
2019-03-30T06:53:25.612Z,2.60
2019-03-30T06:56:12.925Z,2.87
2019-03-30T06:59:06.962Z,2.80
2019-03-30T07:01:54.141Z,2.40
2019-03-30T07:04:48.939Z,2.53
2019-03-30T07:07:35.934Z,2.47
2019-03-30T07:10:30.036Z,2.80
2019-03-30T07:13:17.022Z,2.57
2019-03-30T07:16:11.836Z,2.70
2019-03-30T07:19:00.566Z,2.53
2019-03-30T07:21:55.276Z,2.60
2019-03-30T07:24:45.262Z,2.80
2019-03-30T07:27:39.679Z,2.50
2019-03-30T07:30:41.001Z,2.63
2019-03-30T07:33:35.147Z,2.20
2019-03-30T07:36:22.618Z,2.57
2019-03-30T07:39:16.902Z,3.00
2019-03-30T07:42:05.993Z,2.40
2019-03-30T07:45:00.530Z,2.63
2019-03-30T07:47:48.131Z,2.70
2019-03-30T07:50:42.605Z,2.60
2019-03-30T07:53:43.799Z,2.90
2019-03-30T07:56:26.942Z,2.30
2019-03-30T07:59:14.057Z,2.33
2019-03-30T08:02:08.855Z,2.40
2019-03-30T08:04:56.097Z,2.40
2019-03-30T08:07:50.606Z,2.33
2019-03-30T08:10:37.991Z,2.57
2019-03-30T08:13:31.689Z,2.47
2019-03-30T08:16:18.731Z,2.50
2019-03-30T08:19:12.903Z,2.70
2019-03-30T08:22:00.481Z,2.50
2019-03-30T08:24:54.369Z,2.60
2019-03-30T08:27:51.053Z,2.60
2019-03-30T08:30:51.783Z,2.57
2019-03-30T08:33:45.919Z,2.23
2019-03-30T08:36:39.866Z,2.63
2019-03-30T08:39:27.354Z,2.60
2019-03-30T08:42:21.375Z,2.53
2019-03-30T08:45:08.723Z,2.53
2019-03-30T08:48:03.002Z,2.60
2019-03-30T08:50:50.048Z,2.30
2019-03-30T08:53:54.479Z,2.40
2019-03-30T08:56:33.916Z,2.50
2019-03-30T08:59:27.502Z,2.50
2019-03-30T09:02:14.691Z,2.30
2019-03-30T09:05:11.803Z,2.60
2019-03-30T09:07:57.405Z,2.37
2019-03-30T09:10:51.681Z,2.67
2019-03-30T09:13:38.895Z,2.30
2019-03-30T09:16:32.787Z,2.73
2019-03-30T09:19:21.971Z,2.57
2019-03-30T09:22:18.945Z,2.57
2019-03-30T09:25:15.404Z,2.43
2019-03-30T09:28:09.483Z,2.33
2019-03-30T09:31:05.715Z,2.70
2019-03-30T09:33:59.752Z,2.40
2019-03-30T09:36:46.887Z,2.57
2019-03-30T09:39:41.997Z,2.63
2019-03-30T09:42:29.119Z,2.60
2019-03-30T09:45:23.011Z,2.37
2019-03-30T09:48:13.423Z,2.57
2019-03-30T09:51:08.618Z,2.60
2019-03-30T09:53:55.979Z,3.00
2019-03-30T09:56:50.515Z,3.03
2019-03-30T09:59:37.961Z,2.80
2019-03-30T10:02:31.834Z,2.87
2019-03-30T10:05:19.240Z,2.70
2019-03-30T10:08:12.780Z,3.00
2019-03-30T10:10:59.987Z,2.93
2019-03-30T10:13:56.063Z,3.33
2019-03-30T10:16:43.425Z,3.00
2019-03-30T10:19:37.173Z,2.80
2019-03-30T10:25:41.303Z,3.10
2019-03-30T10:28:28.794Z,2.77
2019-03-30T10:31:22.789Z,2.80
2019-03-30T10:34:22.725Z,3.10
2019-03-30T10:37:17.331Z,3.20
2019-03-30T10:40:08.039Z,3.00
2019-03-30T10:43:02.040Z,2.97
2019-03-30T10:45:50.051Z,3.07
2019-03-30T10:48:44.455Z,3.00
2019-03-30T10:51:31.857Z,2.67
2019-03-30T10:54:26.507Z,3.10
2019-03-30T10:57:13.706Z,2.77
2019-03-30T11:00:07.931Z,2.63
2019-03-30T11:02:55.249Z,3.10
2019-03-30T11:05:48.777Z,3.10
2019-03-30T11:08:36.272Z,2.70
2019-03-30T11:11:29.545Z,3.30
2019-03-30T11:14:16.351Z,2.90
2019-03-30T11:17:12.854Z,2.83
2019-03-30T11:19:59.773Z,3.03
2019-03-30T11:22:53.640Z,2.83
2019-03-30T11:25:40.955Z,2.80
2019-03-30T11:28:34.721Z,2.70
2019-03-30T11:31:21.867Z,2.53
2019-03-30T11:34:22.803Z,2.97
2019-03-30T11:37:17.397Z,2.90
2019-03-30T11:40:12.490Z,3.00
2019-03-30T11:43:00.061Z,3.13
2019-03-30T11:45:53.925Z,3.00
2019-03-30T11:48:41.389Z,3.20
2019-03-30T11:51:34.965Z,3.10
2019-03-30T11:54:22.281Z,4.10
2019-03-30T11:57:16.579Z,4.00
2019-03-30T12:00:06.626Z,4.20
2019-03-30T12:03:00.601Z,4.20
2019-03-30T12:05:48.023Z,4.10
2019-03-30T12:08:42.725Z,4.40
2019-03-30T12:11:30.171Z,4.90
2019-03-30T12:14:24.061Z,4.70
2019-03-30T12:17:11.274Z,4.00
2019-03-30T12:20:05.857Z,3.97
2019-03-30T12:22:54.285Z,4.37
2019-03-30T12:25:48.451Z,4.13
2019-03-30T12:28:35.728Z,3.93
2019-03-30T12:31:30.371Z,4.20
2019-03-30T12:34:24.241Z,4.20
2019-03-30T12:37:21.170Z,4.27
2019-03-30T12:40:14.912Z,4.07
2019-03-30T12:43:09.401Z,4.37
2019-03-30T12:45:56.653Z,4.40
2019-03-30T12:48:51.747Z,4.33
2019-03-30T12:51:41.976Z,3.80
2019-03-30T12:54:36.503Z,4.20
2019-03-30T12:57:23.621Z,4.07
2019-03-30T13:00:17.612Z,3.97
2019-03-30T13:03:08.570Z,4.17
2019-03-30T13:06:02.710Z,4.13
2019-03-30T13:08:50.103Z,4.10
2019-03-30T13:11:45.856Z,4.20
2019-03-30T13:14:33.142Z,3.60
2019-03-30T13:17:30.030Z,3.40
2019-03-30T13:20:18.489Z,3.73
2019-03-30T13:23:12.568Z,3.97
2019-03-30T13:26:03.792Z,3.20
2019-03-30T13:29:02.702Z,3.90
2019-03-30T13:31:50.132Z,3.80
2019-03-30T13:34:54.496Z,4.00
2019-03-30T13:37:49.865Z,4.10
2019-03-30T13:40:51.052Z,4.07
2019-03-30T13:43:38.466Z,3.93
2019-03-30T13:46:33.063Z,3.77
2019-03-30T13:49:20.206Z,4.00
2019-03-30T13:52:15.207Z,3.30
2019-03-30T13:55:02.697Z,3.53
2019-03-30T13:57:58.025Z,3.50
2019-03-30T14:00:45.578Z,3.50
2019-03-30T14:03:39.532Z,3.00
2019-03-30T14:06:27.000Z,4.00
2019-03-30T14:09:22.219Z,3.83
2019-03-30T14:12:09.277Z,3.90
2019-03-30T14:15:09.178Z,3.87
2019-03-30T14:17:54.989Z,3.40
2019-03-30T14:20:48.906Z,3.77
2019-03-30T14:23:35.911Z,3.73
2019-03-30T14:26:31.639Z,3.27
2019-03-30T14:29:18.501Z,3.63
2019-03-30T14:32:12.321Z,3.20
2019-03-30T14:35:06.475Z,3.70
2019-03-30T14:38:07.025Z,3.50
2019-03-30T14:41:03.853Z,3.87
2019-03-30T14:43:57.643Z,4.13
2019-03-30T14:46:45.063Z,3.40
2019-03-30T14:49:39.581Z,3.30
2019-03-30T14:52:26.731Z,3.30
2019-03-30T14:55:22.649Z,3.43
2019-03-30T14:58:10.034Z,3.80
2019-03-30T15:01:04.263Z,3.60
2019-03-30T15:03:51.702Z,4.03
2019-03-30T15:06:45.993Z,3.40
2019-03-30T15:09:33.345Z,3.23
2019-03-30T15:12:39.231Z,3.63
2019-03-30T15:15:26.579Z,3.60
2019-03-30T15:18:20.173Z,3.40
2019-03-30T15:21:08.588Z,3.50
2019-03-30T15:24:02.988Z,3.47
2019-03-30T15:26:59.818Z,3.20
2019-03-30T15:29:46.010Z,3.57
2019-03-30T15:32:35.624Z,3.63
2019-03-30T15:35:29.485Z,3.57
2019-03-30T15:38:26.277Z,3.73
2019-03-30T15:41:20.714Z,3.33
2019-03-30T15:44:15.128Z,3.53
2019-03-30T15:47:09.613Z,3.37
2019-03-30T15:49:56.835Z,3.20
2019-03-30T15:52:50.937Z,3.60
2019-03-30T15:55:38.133Z,3.50
2019-03-30T15:58:34.067Z,3.10
2019-03-30T16:01:21.251Z,3.03
2019-03-30T16:04:15.475Z,3.00
2019-03-30T16:07:02.893Z,3.47
2019-03-30T16:09:56.612Z,3.40
2019-03-30T16:12:43.819Z,3.10
2019-03-30T16:15:39.204Z,3.17
2019-03-30T16:18:26.143Z,2.80
2019-03-30T16:21:21.190Z,2.80
2019-03-30T16:24:08.491Z,3.30
2019-03-30T16:27:02.298Z,3.20
2019-03-30T16:29:49.633Z,2.80
2019-03-30T16:32:44.071Z,3.17
2019-03-30T16:35:31.383Z,2.80
2019-03-30T16:38:31.691Z,3.20
2019-03-30T16:41:18.841Z,3.10
2019-03-30T16:44:12.381Z,2.90
2019-03-30T16:47:07.089Z,2.70
2019-03-30T16:50:01.680Z,3.20
2019-03-30T16:52:50.723Z,3.23
2019-03-30T16:55:46.234Z,3.00
2019-03-30T16:58:32.770Z,3.00
2019-03-30T17:01:26.861Z,2.87
2019-03-30T17:04:14.031Z,3.03
2019-03-30T17:07:08.039Z,2.93
2019-03-30T17:09:55.507Z,2.87
2019-03-30T17:12:49.092Z,2.87
2019-03-30T17:15:36.089Z,2.97
2019-03-30T17:18:30.479Z,2.97
2019-03-30T17:21:19.255Z,3.10
2019-03-30T17:24:14.118Z,3.03
2019-03-30T17:27:01.404Z,3.07
2019-03-30T17:29:57.235Z,3.00
2019-03-30T17:32:44.640Z,2.83
2019-03-30T17:35:39.223Z,3.23
2019-03-30T17:38:33.401Z,3.00
2019-03-30T17:41:35.079Z,2.87
2019-03-30T17:44:22.217Z,2.90
2019-03-30T17:47:16.645Z,2.90
2019-03-30T17:50:10.959Z,2.80
2019-03-30T17:53:05.179Z,2.70
2019-03-30T17:55:52.654Z,3.20
2019-03-30T17:58:47.036Z,3.07
2019-03-30T18:01:34.582Z,2.60
2019-03-30T18:04:28.368Z,3.10
2019-03-30T18:07:15.681Z,3.23
2019-03-30T18:10:09.692Z,2.93
2019-03-30T18:12:56.695Z,3.10
2019-03-30T18:15:51.649Z,3.30
2019-03-30T18:18:38.923Z,2.77
2019-03-30T18:21:33.422Z,2.67
2019-03-30T18:24:20.754Z,2.50
2019-03-30T18:27:15.292Z,2.80
2019-03-30T18:30:02.557Z,3.17
2019-03-30T18:32:56.668Z,3.07
2019-03-30T18:35:44.300Z,3.10
2019-03-30T18:38:44.952Z,2.73
2019-03-30T18:41:38.612Z,3.07
2019-03-30T18:44:33.118Z,2.97
2019-03-30T18:47:20.279Z,3.37
2019-03-30T18:50:14.445Z,3.20
2019-03-30T18:53:10.142Z,3.57
2019-03-30T18:56:03.809Z,3.10
2019-03-30T18:58:51.195Z,3.43
2019-03-30T19:01:44.918Z,3.03
2019-03-30T19:04:47.573Z,3.17
2019-03-30T19:07:41.651Z,3.23
2019-03-30T19:10:28.828Z,3.40
2019-03-30T19:13:22.850Z,2.87
2019-03-30T19:16:09.892Z,3.33
2019-03-30T19:19:05.468Z,3.00
2019-03-30T19:21:52.405Z,3.20
2019-03-30T19:24:46.696Z,3.40
2019-03-30T19:27:33.906Z,3.17
2019-03-30T19:30:28.502Z,3.37
2019-03-30T19:33:16.161Z,3.17
2019-03-30T19:36:10.101Z,3.23
2019-03-30T19:39:05.144Z,3.30
2019-03-30T19:42:05.766Z,3.27
2019-03-30T19:44:53.256Z,3.40
2019-03-30T19:47:47.188Z,3.70
2019-03-30T19:50:34.416Z,3.57
2019-03-30T19:53:35.755Z,3.60
2019-03-30T19:56:23.030Z,3.30
2019-03-30T19:59:17.295Z,3.03
2019-03-30T20:02:35.057Z,3.40
2019-03-30T20:05:07.678Z,3.30
2019-03-30T20:07:55.296Z,3.53
2019-03-30T20:10:49.582Z,3.47
2019-03-30T20:13:36.993Z,3.70
2019-03-30T20:16:31.068Z,3.77
2019-03-30T20:19:18.235Z,4.00
2019-03-30T20:22:12.337Z,3.43
2019-03-30T20:24:59.490Z,3.97
2019-03-30T20:27:53.297Z,3.80
2019-03-30T20:30:40.486Z,3.50
2019-03-30T20:33:34.774Z,3.73
2019-03-30T20:36:22.191Z,3.90
2019-03-30T20:39:16.361Z,3.90
2019-03-30T20:42:09.950Z,3.73
2019-03-30T20:45:15.771Z,3.90
2019-03-30T20:48:03.288Z,4.20
2019-03-30T20:51:00.256Z,3.73
2019-03-30T20:53:54.219Z,3.50
2019-03-30T20:57:08.338Z,4.37
2019-03-30T21:00:05.473Z,4.00
2019-03-30T21:02:59.771Z,3.70
2019-03-30T21:05:46.941Z,4.70
2019-03-30T21:08:40.842Z,4.27
2019-03-30T21:11:31.334Z,4.00
2019-03-30T21:14:25.579Z,4.50
2019-03-30T21:17:12.961Z,4.30
2019-03-30T21:20:07.494Z,4.20
2019-03-30T21:22:54.709Z,4.27
2019-03-30T21:25:49.056Z,4.73
2019-03-30T21:28:36.439Z,4.30
2019-03-30T21:31:30.346Z,4.40
2019-03-30T21:34:17.780Z,4.60
2019-03-30T21:37:12.163Z,4.50
2019-03-30T21:39:59.663Z,4.57
2019-03-30T21:42:54.154Z,4.43
2019-03-30T21:45:48.179Z,4.20
2019-03-30T21:48:43.349Z,4.70
2019-03-30T21:51:30.516Z,4.50
2019-03-30T21:54:23.898Z,4.77
2019-03-30T21:57:20.025Z,4.47
2019-03-30T22:00:14.013Z,4.60
2019-03-30T22:03:01.118Z,4.40
2019-03-30T22:05:55.554Z,4.87
2019-03-30T22:08:43.043Z,4.50
2019-03-30T22:11:37.774Z,4.30
2019-03-30T22:14:25.013Z,4.07
2019-03-30T22:17:19.847Z,4.43
2019-03-30T22:20:07.060Z,4.33
2019-03-30T22:23:00.885Z,4.53
2019-03-30T22:25:48.406Z,4.97
2019-03-30T22:28:42.102Z,4.50
2019-03-30T22:31:29.282Z,4.73
2019-03-30T22:34:26.250Z,3.63
2019-03-30T22:37:16.235Z,4.40
2019-03-30T22:40:10.264Z,4.47
2019-03-30T22:42:57.448Z,4.67
2019-03-30T22:45:57.287Z,4.97
2019-03-30T22:48:50.818Z,4.47
2019-03-30T22:51:45.017Z,4.97
2019-03-30T22:54:33.977Z,4.40
2019-03-30T22:57:27.883Z,4.47
2019-03-30T23:00:41.715Z,4.60
2019-03-30T23:03:36.126Z,4.47
2019-03-30T23:06:23.631Z,4.00
2019-03-30T23:09:17.474Z,4.50
2019-03-30T23:12:04.995Z,4.50
2019-03-30T23:14:58.833Z,4.40
2019-03-30T23:17:45.890Z,4.83
2019-03-30T23:20:41.235Z,4.50
2019-03-30T23:23:28.794Z,4.40
2019-03-30T23:26:22.596Z,4.67
2019-03-30T23:29:09.640Z,4.23
2019-03-30T23:32:03.273Z,4.80
2019-03-30T23:34:50.284Z,4.23
2019-03-30T23:37:45.043Z,4.53
2019-03-30T23:40:32.155Z,4.43
2019-03-30T23:43:28.855Z,4.60
2019-03-30T23:46:22.775Z,4.57
2019-03-30T23:49:23.604Z,4.20
2019-03-30T23:52:10.605Z,4.70
2019-03-30T23:55:04.683Z,4.57
2019-03-30T23:57:51.987Z,4.53
